Time;durP1;ratioP1;P1;durP2;ratioP2;P2;SDS_P1;SDS_P2;PMS_P1;PMS_P2;Temp;Humidity;BMP_temperature;BMP_pressure;BME280_temperature;BME280_humidity;BME280_pressure;Samples;Min_cycle;Max_cycle;Signal;HPM_P1;HPM_P2
2023/06/02 00:01:49;;;;;;;6.95;4.95;;;;;;;;;;5116977;28;20051;-84
2023/06/02 00:04:17;;;;;;;6.10;5.57;;;;;;;;;;5116068;28;20051;-84
2023/06/02 00:06:45;;;;;;;5.93;4.80;;;;;;;;;;5116597;28;20079;-84
2023/06/02 00:09:12;;;;;;;5.07;4.43;;;;;;;;;;5115778;28;20048;-84
2023/06/02 00:11:40;;;;;;;6.22;5.32;;;;;;;;;;5115745;28;20130;-84
2023/06/02 00:14:07;;;;;;;5.50;5.00;;;;;;;;;;5116684;28;20043;-84
2023/06/02 00:16:42;;;;;;;7.13;4.32;;;;;;;;;;5116714;28;20502;-84
2023/06/02 00:19:11;;;;;;;5.57;5.05;;;;;;;;;;5115829;28;20117;-84
2023/06/02 00:21:41;;;;;;;6.07;5.47;;;;;;;;;;5115196;28;20044;-84
2023/06/02 00:24:08;;;;;;;5.40;4.90;;;;;;;;;;5115773;28;20047;-85
2023/06/02 00:26:36;;;;;;;5.05;4.65;;;;;;;;;;5116635;28;20406;-84
2023/06/02 00:29:03;;;;;;;4.68;4.38;;;;;;;;;;5116194;28;20097;-84
2023/06/02 00:31:30;;;;;;;4.75;4.38;;;;;;;;;;5115353;28;20437;-84
2023/06/02 00:33:58;;;;;;;7.35;5.40;;;;;;;;;;5115400;28;20052;-85
2023/06/02 00:36:25;;;;;;;5.32;4.82;;;;;;;;;;5115651;28;20513;-84
2023/06/02 00:38:52;;;;;;;6.03;5.28;;;;;;;;;;5115109;28;20051;-84
2023/06/02 00:41:20;;;;;;;4.95;4.55;;;;;;;;;;5116149;28;20083;-84
2023/06/02 00:43:47;;;;;;;5.13;4.72;;;;;;;;;;5115239;28;20044;-84
2023/06/02 00:46:15;;;;;;;5.50;5.00;;;;;;;;;;5116314;28;20104;-84
2023/06/02 00:48:43;;;;;;;8.18;6.10;;;;;;;;;;5115967;28;20048;-83
2023/06/02 00:51:11;;;;;;;5.97;5.55;;;;;;;;;;5115147;28;20051;-84
2023/06/02 00:53:38;;;;;;;5.47;5.00;;;;;;;;;;5115351;28;20047;-84
2023/06/02 00:56:06;;;;;;;6.28;5.72;;;;;;;;;;5117025;28;20269;-86
2023/06/02 00:58:37;;;;;;;9.43;5.22;;;;;;;;;;5129759;28;20122;-84
2023/06/02 01:01:10;;;;;;;7.78;5.68;;;;;;;;;;5114896;28;20148;-84
2023/06/02 01:03:38;;;;;;;5.13;4.73;;;;;;;;;;5114681;28;20044;-85
2023/06/02 01:06:06;;;;;;;6.68;4.97;;;;;;;;;;5113756;28;20082;-84
2023/06/02 01:08:37;;;;;;;6.13;5.40;;;;;;;;;;5114951;28;20089;-84
2023/06/02 01:11:04;;;;;;;6.38;5.78;;;;;;;;;;5114686;28;20047;-84
2023/06/02 01:13:32;;;;;;;5.68;5.18;;;;;;;;;;5115894;28;20051;-84
2023/06/02 01:15:59;;;;;;;6.85;5.70;;;;;;;;;;5115853;27;20055;-85
2023/06/02 01:18:29;;;;;;;8.98;6.72;;;;;;;;;;5116012;28;20085;-85
2023/06/02 01:20:58;;;;;;;8.82;6.35;;;;;;;;;;5114345;28;20055;-84
2023/06/02 01:23:29;;;;;;;9.40;6.25;;;;;;;;;;5115492;28;20055;-84
2023/06/02 01:25:57;;;;;;;7.90;5.82;;;;;;;;;;5114544;28;20054;-84
2023/06/02 01:28:26;;;;;;;8.43;5.35;;;;;;;;;;5114288;28;20044;-84
2023/06/02 01:31:00;;;;;;;6.38;5.78;;;;;;;;;;5114327;28;20427;-85
2023/06/02 01:33:27;;;;;;;5.80;5.20;;;;;;;;;;5114641;28;20057;-85
2023/06/02 01:35:57;;;;;;;6.75;5.13;;;;;;;;;;5114539;28;20058;-85
2023/06/02 01:38:26;;;;;;;5.78;4.97;;;;;;;;;;5115760;28;20051;-84
2023/06/02 01:40:55;;;;;;;4.80;4.40;;;;;;;;;;5115196;28;20071;-84
2023/06/02 01:43:24;;;;;;;5.53;5.03;;;;;;;;;;5113721;28;20054;-84
2023/06/02 01:45:51;;;;;;;5.53;5.00;;;;;;;;;;5113744;28;20145;-84
2023/06/02 01:48:20;;;;;;;8.23;5.57;;;;;;;;;;5113723;28;20508;-84
2023/06/02 01:50:47;;;;;;;6.13;5.28;;;;;;;;;;5113832;28;20126;-84
2023/06/02 01:53:15;;;;;;;5.32;4.93;;;;;;;;;;5114684;28;20051;-84
2023/06/02 01:55:42;;;;;;;6.88;5.53;;;;;;;;;;5113379;28;20047;-84
2023/06/02 01:58:10;;;;;;;5.10;4.70;;;;;;;;;;5113853;28;20047;-85
2023/06/02 02:00:37;;;;;;;5.78;5.28;;;;;;;;;;5113466;28;20655;-84
2023/06/02 02:03:04;;;;;;;5.82;5.28;;;;;;;;;;5113848;28;20047;-85
2023/06/02 02:05:32;;;;;;;5.30;4.85;;;;;;;;;;5114728;28;20048;-84
2023/06/02 02:07:59;;;;;;;6.50;4.85;;;;;;;;;;5113576;28;20080;-85
2023/06/02 02:10:27;;;;;;;7.60;5.47;;;;;;;;;;5117047;28;20039;-84
2023/06/02 02:12:54;;;;;;;7.30;5.00;;;;;;;;;;5131988;28;20047;-85
2023/06/02 02:15:21;;;;;;;9.88;5.28;;;;;;;;;;5115500;28;20407;-84
2023/06/02 02:17:49;;;;;;;8.90;5.82;;;;;;;;;;5113917;28;20047;-84
2023/06/02 02:20:17;;;;;;;11.27;5.97;;;;;;;;;;5113167;28;20086;-85
2023/06/02 02:22:45;;;;;;;9.05;5.15;;;;;;;;;;5113090;28;20051;-84
2023/06/02 02:25:13;;;;;;;5.95;5.05;;;;;;;;;;5113607;28;20054;-85
2023/06/02 02:27:40;;;;;;;7.80;4.97;;;;;;;;;;5113248;28;20071;-85
2023/06/02 02:30:08;;;;;;;9.18;5.00;;;;;;;;;;5114424;28;20078;-84
2023/06/02 02:32:37;;;;;;;12.30;5.65;;;;;;;;;;5112915;28;20105;-84
2023/06/02 02:35:04;;;;;;;9.05;5.00;;;;;;;;;;5113136;28;20446;-85
2023/06/02 02:37:32;;;;;;;10.60;4.30;;;;;;;;;;5113385;28;20103;-85
2023/06/02 02:40:12;;;;;;;12.82;5.25;;;;;;;;;;5112736;28;20480;-85
2023/06/02 02:42:40;;;;;;;7.70;4.45;;;;;;;;;;5113257;28;20047;-84
2023/06/02 02:45:08;;;;;;;13.85;4.47;;;;;;;;;;5113052;28;20044;-84
2023/06/02 02:47:35;;;;;;;17.00;4.90;;;;;;;;;;5113091;28;20047;-85
2023/06/02 02:50:03;;;;;;;10.50;5.15;;;;;;;;;;5112980;28;20538;-85
2023/06/02 02:52:31;;;;;;;15.05;5.38;;;;;;;;;;5112791;28;20441;-84
2023/06/02 02:54:59;;;;;;;11.65;5.40;;;;;;;;;;5112934;28;20483;-84
2023/06/02 02:57:26;;;;;;;12.38;5.68;;;;;;;;;;5113170;28;20051;-85
2023/06/02 02:59:55;;;;;;;11.40;5.20;;;;;;;;;;5113703;28;20051;-84
2023/06/02 03:02:22;;;;;;;9.70;5.63;;;;;;;;;;5114043;28;20048;-84
2023/06/02 03:04:51;;;;;;;10.90;5.57;;;;;;;;;;5112826;28;20426;-84
2023/06/02 03:07:19;;;;;;;14.48;5.88;;;;;;;;;;5112913;28;20055;-85
2023/06/02 03:09:46;;;;;;;10.88;5.32;;;;;;;;;;5112491;28;20051;-84
2023/06/02 03:12:13;;;;;;;10.30;5.80;;;;;;;;;;5113689;28;20059;-84
2023/06/02 03:14:40;;;;;;;12.68;6.60;;;;;;;;;;5113937;28;20048;-84
2023/06/02 03:17:08;;;;;;;12.23;6.30;;;;;;;;;;5113702;28;20078;-83
2023/06/02 03:19:36;;;;;;;13.05;6.55;;;;;;;;;;5112556;28;20075;-84
2023/06/02 03:22:03;;;;;;;9.90;5.40;;;;;;;;;;5112407;28;20463;-84
2023/06/02 03:24:31;;;;;;;10.20;5.70;;;;;;;;;;5113743;28;20051;-84
2023/06/02 03:26:59;;;;;;;8.70;5.25;;;;;;;;;;5113609;28;20483;-83
2023/06/02 03:29:26;;;;;;;8.60;6.20;;;;;;;;;;5128941;28;20069;-85
2023/06/02 03:31:55;;;;;;;14.30;5.47;;;;;;;;;;5112241;28;20059;-84
2023/06/02 03:34:22;;;;;;;13.63;5.82;;;;;;;;;;5112759;28;20400;-86
2023/06/02 03:36:50;;;;;;;12.38;5.07;;;;;;;;;;5112497;28;20039;-84
2023/06/02 03:39:17;;;;;;;13.38;6.45;;;;;;;;;;5113151;28;20105;-84
2023/06/02 03:41:44;;;;;;;10.85;5.28;;;;;;;;;;5113307;28;20487;-85
2023/06/02 03:44:11;;;;;;;12.32;6.18;;;;;;;;;;5112251;28;20086;-84
2023/06/02 03:46:39;;;;;;;10.35;5.97;;;;;;;;;;5111926;28;20075;-84
2023/06/02 03:49:06;;;;;;;9.57;5.00;;;;;;;;;;5113096;28;20058;-84
2023/06/02 03:51:33;;;;;;;14.07;5.70;;;;;;;;;;5112178;28;20040;-84
2023/06/02 03:54:01;;;;;;;10.57;5.28;;;;;;;;;;5112934;28;20047;-85
2023/06/02 03:56:31;;;;;;;13.15;5.25;;;;;;;;;;5112388;28;20536;-85
2023/06/02 03:58:58;;;;;;;10.98;5.15;;;;;;;;;;5112190;28;20109;-85
2023/06/02 04:01:26;;;;;;;13.52;5.53;;;;;;;;;;5113256;28;20040;-86
2023/06/02 04:03:53;;;;;;;16.73;6.00;;;;;;;;;;5112153;28;20075;-85
2023/06/02 04:06:21;;;;;;;12.60;5.60;;;;;;;;;;5111973;28;20058;-83
2023/06/02 04:08:48;;;;;;;11.55;5.45;;;;;;;;;;5112810;28;20096;-84
2023/06/02 04:11:15;;;;;;;11.85;5.80;;;;;;;;;;5111681;28;20043;-84
2023/06/02 04:13:43;;;;;;;12.20;5.88;;;;;;;;;;5112815;28;20090;-85
2023/06/02 04:16:10;;;;;;;10.77;5.90;;;;;;;;;;5112061;28;20048;-84
2023/06/02 04:18:41;;;;;;;14.07;6.43;;;;;;;;;;5113228;28;20048;-87
2023/06/02 04:21:08;;;;;;;12.27;6.03;;;;;;;;;;5112036;28;20040;-85
2023/06/02 04:23:35;;;;;;;9.65;5.93;;;;;;;;;;5112045;28;20083;-85
2023/06/02 04:26:02;;;;;;;12.40;5.90;;;;;;;;;;5113090;28;20109;-85
2023/06/02 04:28:30;;;;;;;11.30;6.30;;;;;;;;;;5112010;28;20128;-86
2023/06/02 04:30:59;;;;;;;15.70;6.38;;;;;;;;;;5111460;28;20116;-84
2023/06/02 04:33:26;;;;;;;17.48;6.47;;;;;;;;;;5111835;28;20462;-89
2023/06/02 04:35:55;;;;;;;10.30;6.05;;;;;;;;;;5112661;28;20044;-85
2023/06/02 04:38:22;;;;;;;9.52;5.03;;;;;;;;;;5111567;28;20483;-84
2023/06/02 04:40:50;;;;;;;13.73;6.13;;;;;;;;;;5111909;28;20099;-85
2023/06/02 04:43:18;;;;;;;11.10;5.25;;;;;;;;;;5119688;28;20118;-84
2023/06/02 04:45:47;;;;;;;16.05;5.63;;;;;;;;;;5128001;27;20047;-85
2023/06/02 04:48:14;;;;;;;12.00;5.50;;;;;;;;;;5116624;28;20407;-84
2023/06/02 04:50:42;;;;;;;17.95;4.90;;;;;;;;;;5116266;28;20044;-86
2023/06/02 04:53:09;;;;;;;9.65;4.22;;;;;;;;;;5115376;28;20068;-84
2023/06/02 04:55:36;;;;;;;12.35;5.22;;;;;;;;;;5116293;28;20492;-85
2023/06/02 04:58:04;;;;;;;16.38;4.65;;;;;;;;;;5115439;28;20051;-91
2023/06/02 05:00:31;;;;;;;15.35;4.50;;;;;;;;;;5115317;28;20044;-85
2023/06/02 05:02:59;;;;;;;13.65;4.88;;;;;;;;;;5115108;28;20043;-86
2023/06/02 05:05:26;;;;;;;9.68;4.53;;;;;;;;;;5115019;28;20103;-84
2023/06/02 05:07:54;;;;;;;13.27;4.57;;;;;;;;;;5114683;28;20048;-85
2023/06/02 05:10:21;;;;;;;17.20;5.10;;;;;;;;;;5115212;28;20074;-84
2023/06/02 05:12:49;;;;;;;17.88;4.55;;;;;;;;;;5115521;27;20048;-83
2023/06/02 05:15:16;;;;;;;16.38;5.65;;;;;;;;;;5115766;28;20047;-84
2023/06/02 05:17:44;;;;;;;10.15;4.40;;;;;;;;;;5116071;28;20039;-85
2023/06/02 05:20:11;;;;;;;17.48;4.82;;;;;;;;;;5115222;28;20055;-84
2023/06/02 05:22:39;;;;;;;8.88;4.07;;;;;;;;;;5115504;28;20556;-84
2023/06/02 05:25:07;;;;;;;10.20;4.47;;;;;;;;;;5115856;27;20081;-84
2023/06/02 05:27:38;;;;;;;10.00;4.47;;;;;;;;;;5114546;28;20484;-85
2023/06/02 05:30:05;;;;;;;17.02;5.22;;;;;;;;;;5115749;28;20126;-84
2023/06/02 05:32:33;;;;;;;16.55;4.78;;;;;;;;;;5114283;28;20047;-86
2023/06/02 05:35:00;;;;;;;24.25;4.32;;;;;;;;;;5114796;28;20052;-84
2023/06/02 05:37:27;;;;;;;11.82;4.32;;;;;;;;;;5114486;28;20065;-85
2023/06/02 05:39:55;;;;;;;17.10;4.85;;;;;;;;;;5115536;28;20048;-84
2023/06/02 05:42:22;;;;;;;13.75;5.10;;;;;;;;;;5115254;28;20408;-84
2023/06/02 05:44:49;;;;;;;13.57;4.93;;;;;;;;;;5114396;28;20051;-83
2023/06/02 05:47:17;;;;;;;12.45;5.00;;;;;;;;;;5115326;28;20040;-82
2023/06/02 05:49:44;;;;;;;17.20;5.20;;;;;;;;;;5113717;28;20138;-85
2023/06/02 05:52:11;;;;;;;14.38;5.50;;;;;;;;;;5113691;28;20048;-84
2023/06/02 05:54:39;;;;;;;14.48;5.50;;;;;;;;;;5115396;28;20047;-83
2023/06/02 05:57:06;;;;;;;15.00;5.28;;;;;;;;;;5114111;28;20480;-85
2023/06/02 05:59:34;;;;;;;10.15;5.13;;;;;;;;;;5130064;28;20054;-85
2023/06/02 06:02:01;;;;;;;16.88;4.97;;;;;;;;;;5115822;28;20047;-85
2023/06/02 06:04:28;;;;;;;10.10;4.97;;;;;;;;;;5113513;28;20056;-84
2023/06/02 06:06:55;;;;;;;15.63;4.57;;;;;;;;;;5114887;28;20047;-84
2023/06/02 06:09:22;;;;;;;14.50;4.72;;;;;;;;;;5114036;28;20093;-85
2023/06/02 06:11:50;;;;;;;18.60;5.45;;;;;;;;;;5114778;28;20062;-85
2023/06/02 06:14:17;;;;;;;16.13;5.50;;;;;;;;;;5114887;28;20051;-85
2023/06/02 06:16:44;;;;;;;20.10;6.22;;;;;;;;;;5114565;28;20089;-85
2023/06/02 06:19:12;;;;;;;10.43;4.78;;;;;;;;;;5115190;28;20407;-85
2023/06/02 06:21:39;;;;;;;14.25;4.88;;;;;;;;;;5112912;28;20089;-84
2023/06/02 06:24:07;;;;;;;12.10;4.90;;;;;;;;;;5113501;28;20075;-85
2023/06/02 06:26:34;;;;;;;12.48;4.38;;;;;;;;;;5113631;28;20453;-85
2023/06/02 06:29:03;;;;;;;12.38;4.43;;;;;;;;;;5113374;28;20082;-85
2023/06/02 06:31:32;;;;;;;13.75;3.92;;;;;;;;;;5112984;28;20052;-85
2023/06/02 06:34:00;;;;;;;18.65;4.45;;;;;;;;;;5113532;28;20104;-85
2023/06/02 06:36:27;;;;;;;11.30;3.90;;;;;;;;;;5114597;27;20108;-84
2023/06/02 06:38:54;;;;;;;12.15;3.53;;;;;;;;;;5113293;28;20130;-84
2023/06/02 06:41:22;;;;;;;14.57;4.07;;;;;;;;;;5114489;28;20092;-85
2023/06/02 06:43:50;;;;;;;8.52;3.25;;;;;;;;;;5113042;28;20048;-85
2023/06/02 06:46:17;;;;;;;12.25;3.95;;;;;;;;;;5113028;28;20063;-84
2023/06/02 06:48:44;;;;;;;12.18;4.65;;;;;;;;;;5114544;28;20090;-85
2023/06/02 06:51:13;;;;;;;17.58;4.03;;;;;;;;;;5112900;28;20130;-84
2023/06/02 06:53:40;;;;;;;8.35;3.70;;;;;;;;;;5112989;28;20105;-84
2023/06/02 06:56:08;;;;;;;11.45;3.60;;;;;;;;;;5114035;28;20040;-83
2023/06/02 06:58:35;;;;;;;6.80;3.28;;;;;;;;;;5113893;28;20048;-84
2023/06/02 07:01:02;;;;;;;10.95;4.03;;;;;;;;;;5111521;28;20047;-83
2023/06/02 07:03:30;;;;;;;11.18;3.10;;;;;;;;;;5101640;28;20509;-84
2023/06/02 07:05:57;;;;;;;10.88;3.63;;;;;;;;;;5101060;28;20047;-85
2023/06/02 07:08:24;;;;;;;9.43;3.58;;;;;;;;;;5102571;28;20506;-85
2023/06/02 07:10:52;;;;;;;11.98;4.18;;;;;;;;;;5101870;28;20044;-86
2023/06/02 07:13:20;;;;;;;13.68;4.03;;;;;;;;;;5103323;28;20459;-87
2023/06/02 07:15:48;;;;;;;10.30;3.70;;;;;;;;;;5124751;28;20477;-84
2023/06/02 07:18:15;;;;;;;11.57;3.25;;;;;;;;;;5113963;28;20388;-86
2023/06/02 07:20:46;;;;;;;10.75;3.67;;;;;;;;;;5112383;28;20483;-84
2023/06/02 07:23:13;;;;;;;13.00;4.07;;;;;;;;;;5111618;28;20096;-85
2023/06/02 07:25:40;;;;;;;19.40;3.95;;;;;;;;;;5112767;28;20047;-85
2023/06/02 07:28:07;;;;;;;9.95;3.75;;;;;;;;;;5113569;28;20105;-85
2023/06/02 07:30:35;;;;;;;10.30;3.58;;;;;;;;;;5113556;28;20471;-84
2023/06/02 07:33:03;;;;;;;14.85;3.47;;;;;;;;;;5112441;28;20044;-83
2023/06/02 07:35:31;;;;;;;11.93;3.28;;;;;;;;;;5112853;28;20089;-85
2023/06/02 07:37:58;;;;;;;10.80;3.13;;;;;;;;;;5112972;28;20381;-85
2023/06/02 07:40:25;;;;;;;9.88;3.17;;;;;;;;;;5112486;28;20097;-88
2023/06/02 07:42:53;;;;;;;15.48;3.40;;;;;;;;;;5113353;28;20116;-86
2023/06/02 07:45:20;;;;;;;14.07;3.25;;;;;;;;;;5112870;28;20055;-86
2023/06/02 07:47:47;;;;;;;9.07;3.13;;;;;;;;;;5112300;28;20104;-85
2023/06/02 07:50:14;;;;;;;8.38;2.75;;;;;;;;;;5108851;28;20044;-85
2023/06/02 07:52:42;;;;;;;10.23;3.28;;;;;;;;;;5091697;28;20496;-89
2023/06/02 07:55:09;;;;;;;10.60;2.88;;;;;;;;;;5092228;28;20476;-86
2023/06/02 07:57:37;;;;;;;15.02;4.47;;;;;;;;;;5093174;28;20109;-85
2023/06/02 08:00:11;;;;;;;6.97;2.55;;;;;;;;;;5093233;28;20131;-85
2023/06/02 08:02:40;;;;;;;15.35;3.17;;;;;;;;;;5091826;28;20105;-84
2023/06/02 08:05:07;;;;;;;8.48;2.80;;;;;;;;;;5091774;28;20055;-85
2023/06/02 08:07:35;;;;;;;9.40;3.10;;;;;;;;;;5093134;28;20055;-84
2023/06/02 08:10:02;;;;;;;9.65;3.00;;;;;;;;;;5091007;28;20492;-88
2023/06/02 08:12:30;;;;;;;11.93;3.13;;;;;;;;;;5092418;28;20044;-85
2023/06/02 08:14:57;;;;;;;8.38;2.63;;;;;;;;;;5092360;28;20048;-84
2023/06/02 08:17:29;;;;;;;13.15;3.38;;;;;;;;;;5095814;28;20044;-86
2023/06/02 08:20:01;;;;;;;11.65;3.60;;;;;;;;;;5095776;28;20048;-84
2023/06/02 08:22:30;;;;;;;11.60;2.97;;;;;;;;;;5095423;28;20109;-85
2023/06/02 08:24:57;;;;;;;14.23;3.22;;;;;;;;;;5096844;28;20044;-85
2023/06/02 08:27:24;;;;;;;13.65;3.15;;;;;;;;;;5095808;28;20051;-86
2023/06/02 08:29:53;;;;;;;11.80;2.95;;;;;;;;;;5101630;28;20123;-85
2023/06/02 08:32:22;;;;;;;12.55;3.25;;;;;;;;;;5105999;28;20082;-85
2023/06/02 08:34:56;;;;;;;12.65;2.50;;;;;;;;;;5095008;28;20052;-85
2023/06/02 08:37:25;;;;;;;11.18;2.65;;;;;;;;;;5096568;28;20496;-86
2023/06/02 08:39:52;;;;;;;21.63;3.40;;;;;;;;;;5095541;28;20109;-86
2023/06/02 08:42:22;;;;;;;12.73;2.85;;;;;;;;;;5095778;28;20093;-86
2023/06/02 08:44:49;;;;;;;14.00;3.08;;;;;;;;;;5096205;28;20508;-88
2023/06/02 08:47:17;;;;;;;8.93;3.03;;;;;;;;;;5095556;28;20071;-86
2023/06/02 08:49:48;;;;;;;12.18;2.55;;;;;;;;;;5095925;28;20117;-86
2023/06/02 08:52:19;;;;;;;11.13;2.72;;;;;;;;;;5095477;28;20488;-85
2023/06/02 08:54:46;;;;;;;10.50;2.53;;;;;;;;;;5095784;28;20101;-86
2023/06/02 08:57:16;;;;;;;14.77;2.97;;;;;;;;;;5095541;28;20113;-87
2023/06/02 08:59:46;;;;;;;20.63;3.20;;;;;;;;;;5095161;28;20055;-86
2023/06/02 09:02:15;;;;;;;8.23;2.40;;;;;;;;;;5095367;28;20047;-89
2023/06/02 09:04:42;;;;;;;12.88;2.85;;;;;;;;;;5095339;28;20070;-88
2023/06/02 09:07:13;;;;;;;8.68;2.05;;;;;;;;;;5096419;28;20541;-87
2023/06/02 09:09:44;;;;;;;7.80;2.53;;;;;;;;;;5095735;28;20096;-86
2023/06/02 09:12:13;;;;;;;17.08;3.25;;;;;;;;;;5095036;28;20078;-86
2023/06/02 09:14:40;;;;;;;9.05;2.70;;;;;;;;;;5094874;28;20052;-89
2023/06/02 09:17:27;;;;;;;8.57;2.78;;;;;;;;;;5094995;28;20048;-87
2023/06/02 09:19:56;;;;;;;10.80;2.85;;;;;;;;;;5095032;28;20051;-87
2023/06/02 09:22:23;;;;;;;14.32;2.60;;;;;;;;;;5095032;28;20105;-88
2023/06/02 09:24:52;;;;;;;8.52;2.63;;;;;;;;;;5094478;28;20052;-86
2023/06/02 09:27:19;;;;;;;9.38;2.72;;;;;;;;;;5094061;28;20050;-87
2023/06/02 09:29:48;;;;;;;8.05;2.53;;;;;;;;;;5095143;28;20471;-88
2023/06/02 09:32:18;;;;;;;10.90;2.85;;;;;;;;;;5094262;28;20055;-85
2023/06/02 09:34:46;;;;;;;13.23;2.88;;;;;;;;;;5094535;28;20054;-85
2023/06/02 09:37:14;;;;;;;8.95;2.83;;;;;;;;;;5094534;28;20492;-87
2023/06/02 09:39:43;;;;;;;12.65;3.05;;;;;;;;;;5094218;28;20143;-87
2023/06/02 09:42:11;;;;;;;11.75;2.65;;;;;;;;;;5094649;28;20402;-86
2023/06/02 09:44:38;;;;;;;12.88;2.45;;;;;;;;;;5094586;28;20093;-87
2023/06/02 09:47:19;;;;;;;8.70;2.40;;;;;;;;;;5110947;28;20047;-86
2023/06/02 09:49:47;;;;;;;4.55;1.85;;;;;;;;;;5094702;28;20426;-88
2023/06/02 09:52:15;;;;;;;9.68;2.92;;;;;;;;;;5094547;28;20392;-85
2023/06/02 09:54:46;;;;;;;9.07;2.90;;;;;;;;;;5094331;28;20048;-86
2023/06/02 09:57:14;;;;;;;12.90;2.85;;;;;;;;;;5095898;28;20051;-83
2023/06/02 09:59:41;;;;;;;5.97;2.13;;;;;;;;;;5094077;28;20048;-85
2023/06/02 10:02:09;;;;;;;14.15;2.92;;;;;;;;;;5095355;28;20075;-89
2023/06/02 10:04:37;;;;;;;10.27;2.35;;;;;;;;;;5093847;28;20527;-87
2023/06/02 10:07:27;;;;;;;9.70;3.05;;;;;;;;;;5094434;28;20443;-86
2023/06/02 10:10:04;;;;;;;11.68;2.70;;;;;;;;;;5094058;28;20480;-88
2023/06/02 10:12:37;;;;;;;7.03;2.55;;;;;;;;;;5093863;28;20136;-87
2023/06/02 10:15:20;;;;;;;7.53;2.65;;;;;;;;;;5094185;28;20053;-91
2023/06/02 10:17:53;;;;;;;8.90;2.83;;;;;;;;;;5094134;28;20040;-88
2023/06/02 10:20:39;;;;;;;14.67;3.33;;;;;;;;;;5094504;28;20079;-83
2023/06/02 10:23:06;;;;;;;15.10;3.15;;;;;;;;;;5093625;28;20055;-86
2023/06/02 10:25:37;;;;;;;12.68;3.15;;;;;;;;;;5093704;28;20048;-90
2023/06/02 10:28:06;;;;;;;8.48;2.47;;;;;;;;;;5094199;28;20101;-87
2023/06/02 10:30:35;;;;;;;8.07;2.47;;;;;;;;;;5093386;28;20086;-88
2023/06/02 10:33:02;;;;;;;8.80;2.30;;;;;;;;;;5093718;28;20044;-86
2023/06/02 10:35:57;;;;;;;9.15;2.65;;;;;;;;;;5094425;28;20063;-86
2023/06/02 10:38:31;;;;;;;9.18;2.88;;;;;;;;;;5091402;28;20044;-93
2023/06/02 10:40:59;;;;;;;12.63;3.03;;;;;;;;;;5093718;28;20534;-89
2023/06/02 10:43:27;;;;;;;9.80;2.55;;;;;;;;;;5093050;28;20050;-87
2023/06/02 10:46:15;;;;;;;7.82;2.70;;;;;;;;;;5093610;28;20044;-90
2023/06/02 10:48:42;;;;;;;18.83;2.83;;;;;;;;;;5093565;28;20054;-86
2023/06/02 10:51:10;;;;;;;12.07;2.90;;;;;;;;;;5093781;28;20078;-95
2023/06/02 10:53:57;;;;;;;9.45;2.35;;;;;;;;;;5093990;28;20079;-85
2023/06/02 10:56:39;;;;;;;10.30;2.75;;;;;;;;;;5093440;28;20404;-87
2023/06/02 10:59:11;;;;;;;13.50;3.42;;;;;;;;;;5095753;28;20064;-85
2023/06/02 11:01:44;;;;;;;10.40;2.60;;;;;;;;;;5113871;28;20024;-88
2023/06/02 11:04:27;;;;;;;6.68;2.78;;;;;;;;;;5095061;28;20121;-85
2023/06/02 11:07:15;;;;;;;9.45;2.90;;;;;;;;;;5093416;28;20105;-86
2023/06/02 11:09:43;;;;;;;9.65;2.58;;;;;;;;;;5093124;28;20082;-86
2023/06/02 11:12:10;;;;;;;13.73;3.05;;;;;;;;;;5093897;28;20135;-85
2023/06/02 11:14:57;;;;;;;13.35;2.92;;;;;;;;;;5093755;28;20055;-87
2023/06/02 11:17:30;;;;;;;11.23;2.78;;;;;;;;;;5093817;28;20051;-87
2023/06/02 11:19:57;;;;;;;;;;;;;;;;;;5093427;28;20446;-88
2023/06/02 11:22:26;;;;;;;7.85;2.60;;;;;;;;;;5093899;28;19920;-86
2023/06/02 11:24:55;;;;;;;14.38;2.75;;;;;;;;;;5092569;28;20044;-89
2023/06/02 11:27:55;;;;;;;9.57;2.65;;;;;;;;;;5093241;28;20084;-92
2023/06/02 11:30:22;;;;;;;9.43;2.60;;;;;;;;;;5060748;28;20054;-88
2023/06/02 11:32:52;;;;;;;29.48;4.22;;;;;;;;;;5092751;28;20050;-84
2023/06/02 11:35:21;;;;;;;10.93;2.90;;;;;;;;;;5094760;28;20567;-90
2023/06/02 11:38:08;;;;;;;8.50;2.75;;;;;;;;;;5092836;28;20506;-93
2023/06/02 11:40:36;;;;;;;10.88;2.88;;;;;;;;;;5093072;28;20055;-87
2023/06/02 11:43:04;;;;;;;8.77;2.50;;;;;;;;;;5093976;28;20048;-88
2023/06/02 11:45:34;;;;;;;5.72;2.15;;;;;;;;;;5092318;28;20047;-88
2023/06/02 11:48:05;;;;;;;8.85;2.45;;;;;;;;;;5093113;28;20575;-91
2023/06/02 11:50:33;;;;;;;10.82;3.28;;;;;;;;;;5094611;28;20585;-93
2023/06/02 11:53:00;;;;;;;7.90;2.42;;;;;;;;;;5097923;28;20040;-95
2023/06/02 11:55:28;;;;;;;5.07;1.98;;;;;;;;;;5098035;28;20060;-88
2023/06/02 11:58:22;;;;;;;13.30;2.55;;;;;;;;;;5097186;28;20052;-89
2023/06/02 12:00:51;;;;;;;11.60;2.85;;;;;;;;;;5096111;28;20047;-87
2023/06/02 12:03:18;;;;;;;12.85;2.53;;;;;;;;;;5096825;28;20052;-94
2023/06/02 12:05:48;;;;;;;10.43;2.63;;;;;;;;;;5097152;28;20135;-89
2023/06/02 12:08:20;;;;;;;4.15;2.38;;;;;;;;;;5097915;28;20052;-86
2023/06/02 12:10:48;;;;;;;12.32;3.30;;;;;;;;;;5097517;28;20062;-92
2023/06/02 12:13:25;;;;;;;9.85;2.97;;;;;;;;;;5097188;28;20484;-89
2023/06/02 12:15:53;;;;;;;14.65;2.60;;;;;;;;;;5098790;28;20055;-88
2023/06/02 12:18:30;;;;;;;11.75;2.80;;;;;;;;;;5115783;28;20067;-92
2023/06/02 12:20:59;;;;;;;10.15;2.42;;;;;;;;;;5100940;28;20059;-88
2023/06/02 12:23:46;;;;;;;11.32;2.75;;;;;;;;;;5096658;28;20051;-88
2023/06/02 12:26:14;;;;;;;13.57;2.75;;;;;;;;;;5096275;28;20056;-88
2023/06/02 12:28:41;;;;;;;11.07;2.58;;;;;;;;;;5097439;28;20040;-88
2023/06/02 12:31:09;;;;;;;12.20;2.78;;;;;;;;;;5096351;28;20060;-87
2023/06/02 12:33:36;;;;;;;8.95;2.80;;;;;;;;;;5096816;28;20044;-90
2023/06/02 12:36:03;;;;;;;13.70;2.53;;;;;;;;;;5098225;28;20048;-89
2023/06/02 12:38:31;;;;;;;11.25;2.63;;;;;;;;;;5096317;28;20051;-88
2023/06/02 12:41:01;;;;;;;12.27;2.78;;;;;;;;;;5096078;28;20139;-88
2023/06/02 12:43:29;;;;;;;11.13;3.17;;;;;;;;;;5096946;28;20134;-90
2023/06/02 12:45:56;;;;;;;9.40;2.65;;;;;;;;;;5096353;28;20052;-89
2023/06/02 12:48:23;;;;;;;11.30;2.53;;;;;;;;;;5096058;28;20452;-87
2023/06/02 12:50:50;;;;;;;9.98;2.67;;;;;;;;;;5095379;28;20052;-88
2023/06/02 12:53:18;;;;;;;13.48;3.10;;;;;;;;;;5097532;28;20052;-89
2023/06/02 12:55:45;;;;;;;11.82;3.13;;;;;;;;;;5096397;28;20113;-88
2023/06/02 12:58:12;;;;;;;11.25;2.90;;;;;;;;;;5095768;28;20071;-90
2023/06/02 13:00:40;;;;;;;10.05;2.60;;;;;;;;;;5095949;28;20044;-87
2023/06/02 13:03:08;;;;;;;12.48;3.45;;;;;;;;;;5095037;28;20048;-88
2023/06/02 13:05:35;;;;;;;17.20;3.67;;;;;;;;;;5095931;28;20139;-88
2023/06/02 13:08:03;;;;;;;10.23;2.83;;;;;;;;;;5095860;28;20504;-87
2023/06/02 13:10:30;;;;;;;8.60;3.20;;;;;;;;;;5096086;28;20097;-85
2023/06/02 13:12:58;;;;;;;12.10;2.80;;;;;;;;;;5095623;28;20054;-89
2023/06/02 13:15:25;;;;;;;9.55;2.97;;;;;;;;;;5095511;28;20458;-88
2023/06/02 13:17:52;;;;;;;12.25;3.10;;;;;;;;;;5096870;28;20056;-90
2023/06/02 13:20:20;;;;;;;10.60;3.30;;;;;;;;;;5095565;28;20322;-86
2023/06/02 13:22:47;;;;;;;13.25;3.53;;;;;;;;;;5094914;28;20056;-93
2023/06/02 13:25:14;;;;;;;10.70;3.08;;;;;;;;;;5095329;28;20109;-89
2023/06/02 13:27:42;;;;;;;11.25;2.90;;;;;;;;;;5095227;28;20066;-90
2023/06/02 13:30:10;;;;;;;7.95;2.90;;;;;;;;;;5095387;28;20491;-90
2023/06/02 13:32:37;;;;;;;10.60;3.13;;;;;;;;;;5105426;28;20075;-89
2023/06/02 13:35:04;;;;;;;20.08;3.13;;;;;;;;;;5107825;28;20062;-91
2023/06/02 13:37:34;;;;;;;10.15;3.55;;;;;;;;;;5095585;28;20052;-90
2023/06/02 13:40:01;;;;;;;10.93;3.00;;;;;;;;;;5095712;28;20105;-90
2023/06/02 13:42:31;;;;;;;13.82;4.00;;;;;;;;;;5095012;28;20044;-93
2023/06/02 13:45:01;;;;;;;11.23;2.70;;;;;;;;;;5094870;28;20488;-89
2023/06/02 13:47:29;;;;;;;8.57;3.00;;;;;;;;;;5094883;28;20075;-88
2023/06/02 13:49:56;;;;;;;20.80;3.35;;;;;;;;;;5095263;28;20529;-87
2023/06/02 13:52:23;;;;;;;11.30;3.47;;;;;;;;;;5095890;28;20052;-88
2023/06/02 13:54:51;;;;;;;10.02;2.63;;;;;;;;;;5094530;28;20089;-90
2023/06/02 13:57:18;;;;;;;16.73;3.40;;;;;;;;;;5097838;28;20080;-89
2023/06/02 13:59:45;;;;;;;15.23;3.53;;;;;;;;;;5094895;28;20444;-89
2023/06/02 14:02:12;;;;;;;12.15;3.47;;;;;;;;;;5093997;28;20522;-92
2023/06/02 14:04:42;;;;;;;11.43;3.20;;;;;;;;;;5094747;28;20074;-88
2023/06/02 14:07:10;;;;;;;11.60;3.17;;;;;;;;;;5095713;28;20087;-90
2023/06/02 14:09:37;;;;;;;13.02;3.25;;;;;;;;;;5094485;28;20040;-88
2023/06/02 14:12:05;;;;;;;9.15;3.10;;;;;;;;;;5095035;28;20083;-88
2023/06/02 14:14:33;;;;;;;11.48;2.65;;;;;;;;;;5093632;28;20059;-90
2023/06/02 14:17:00;;;;;;;10.70;2.70;;;;;;;;;;5094116;28;20051;-89
2023/06/02 14:19:27;;;;;;;7.72;2.67;;;;;;;;;;5095259;28;20105;-90
2023/06/02 14:21:54;;;;;;;8.63;2.40;;;;;;;;;;5093548;28;20492;-90
2023/06/02 14:24:22;;;;;;;12.65;3.05;;;;;;;;;;5093864;28;20510;-90
2023/06/02 14:26:50;;;;;;;8.93;2.83;;;;;;;;;;5093712;28;20105;-90
2023/06/02 14:29:17;;;;;;;10.35;2.60;;;;;;;;;;5093720;28;20048;-89
2023/06/02 14:31:45;;;;;;;8.45;2.33;;;;;;;;;;5093820;28;20509;-89
2023/06/02 14:34:12;;;;;;;7.70;2.72;;;;;;;;;;5095709;28;20469;-91
2023/06/02 14:36:39;;;;;;;17.60;3.20;;;;;;;;;;5094195;28;20476;-88
2023/06/02 14:39:07;;;;;;;7.78;2.78;;;;;;;;;;5094076;28;20048;-90
2023/06/02 14:41:34;;;;;;;18.80;3.33;;;;;;;;;;5094286;28;20051;-94
2023/06/02 14:44:02;;;;;;;18.35;3.63;;;;;;;;;;5097238;28;20051;-86
2023/06/02 14:46:29;;;;;;;8.43;3.25;;;;;;;;;;5096223;28;20052;-91